Recent Stock News

Symbol Quote Change Chg% Headline Time
JPM-G 25.0300 0.0000 0.00% Prospectus Filed Pursuant to Rule 424(b)(2) (424b2) 08/09/2022 10:17:33 AM
JPM-H 25.0300 0.0000 0.00% Prospectus Filed Pursuant to Rule 424(b)(2) (424b2) 08/09/2022 10:17:33 AM
JPM-J 22.9000 -0.3500 -1.51% Prospectus Filed Pursuant to Rule 424(b)(2) (424b2) 08/09/2022 10:17:33 AM
JPM-K 20.9500 -0.3100 -1.46% Prospectus Filed Pursuant to Rule 424(b)(2) (424b2) 08/09/2022 10:17:33 AM
JPM-L 21.0100 -0.2000 -0.94% Prospectus Filed Pursuant to Rule 424(b)(2) (424b2) 08/09/2022 10:17:33 AM
JPM-M 20.0857 -0.2443 -1.20% Prospectus Filed Pursuant to Rule 424(b)(2) (424b2) 08/09/2022 10:17:33 AM
CET 37.1100 -0.1700 -0.46% Form 13f Holdings Report (13f-hr) 08/09/2022 10:16:27 AM
GBLI 25.0000 -0.2100 -0.83% Current Report Filing (8-k) 08/09/2022 10:15:47 AM
GBLIL 25.5400 0.0000 0.00% Current Report Filing (8-k) 08/09/2022 10:15:47 AM
GBLIZ 24.9925 0.0000 0.00% Current Report Filing (8-k) 08/09/2022 10:15:47 AM
GBLL 24.9900 0.0000 0.00% Current Report Filing (8-k) 08/09/2022 10:15:47 AM
BNS 60.6059 -0.2941 -0.48% Scotiabank Launches Scotia TranXact™ 08/09/2022 10:15:00 AM
BNS 60.6059 -0.2941 -0.48% Scotiabank Launches Scotia TranXact™ 08/09/2022 10:15:00 AM
ALYI 0.0033 0.0009 37.50% ALYI Announces Building Electric Vehicle Merger and Acquisition Momentum 08/09/2022 10:14:35 AM
ETHUSD 1,685.8900 -93.0100 -5.23% I Used Tornado Cash to Donate to Ukraine: Vitalik Buterin 08/09/2022 10:14:12 AM
ONEW 38.1200 -1.0400 -2.66% Current Report Filing (8-k) 08/09/2022 10:13:25 AM
VORB 3.6500 -0.1900 -4.95% J-space Partners With Virgin Orbit to Bring Sovereign Air-Launch Capability to South Korea 08/09/2022 10:12:00 AM
HLIO 63.6000 -6.6800 -9.50% Quarterly Report (10-q) 08/09/2022 10:11:56 AM
HLIO 63.6000 -6.6800 -9.50% Quarterly Report (10-q) 08/09/2022 10:11:56 AM
OBCI 13.0300 0.0000 0.00% Notification Filed by National Security Exchange to Report the Removal From Listing and Registration of Matured, Redeemed or Retired Securities Initial Filing Amendments (25-nse) 08/09/2022 10:10:32 AM
TGEN 0.0000 0.0000 0.00% Tecogen Receives Order for Two InVerde Systems and Components 08/09/2022 10:09:04 AM
GRIF 62.5000 0.0000 0.00% Quarterly Report (10-q) 08/09/2022 10:08:38 AM
INDT 61.2800 -0.2700 -0.44% Quarterly Report (10-q) 08/09/2022 10:08:38 AM
KLAYUSD 0.2811 -0.0178 -5.94% 1inch plugs into Klaytn as Asia continues to climb aboard 08/09/2022 10:07:35 AM
XCNNUSD 0.0894 0.0031 3.55% 1inch plugs into Klaytn as Asia continues to climb aboard 08/09/2022 10:07:35 AM
FNWB 16.7100 0.2850 1.74% Statement of Changes in Beneficial Ownership (4) 08/09/2022 10:05:16 AM
HPI 18.8000 -0.1000 -0.53% Statement of Changes in Beneficial Ownership (4) 08/09/2022 10:04:40 AM
VXX 21.9499 -0.1201 -0.54% Free Writing Prospectus - Filing Under Securities Act Rules 163/433 (fwp) 08/09/2022 10:04:10 AM
ALP-Q 24.9999 -0.0401 -0.16% Prospectus Filed Pursuant to Rule 424(b)(5) (424b5) 08/09/2022 10:04:00 AM
ONEW 38.1200 -1.0400 -2.66% OneWater Marine Inc. Completes the Acquisition of Ocean Bio-Chem 08/09/2022 10:04:00 AM
C 51.8400 0.3700 0.72% Prospectus Filed Pursuant to Rule 424(b)(2) (424b2) 08/09/2022 10:01:59 AM
FNWB 16.7100 0.2850 1.74% Amended Statement of Changes in Beneficial Ownership (4/a) 08/09/2022 10:00:40 AM
DOGEUSD 0.0686 -0.0016 -2.25% Bullish Expectations From The Ethereum Merge Rise Post Chainlink’s Announcement 08/09/2022 10:00:27 AM
ETCUSD 36.0800 -1.9600 -5.15% Bullish Expectations From The Ethereum Merge Rise Post Chainlink’s Announcement 08/09/2022 10:00:27 AM
ETHUSD 1,685.8900 -93.0100 -5.23% Bullish Expectations From The Ethereum Merge Rise Post Chainlink’s Announcement 08/09/2022 10:00:27 AM
TRXUSD 0.0685 -0.0016 -2.30% Bullish Expectations From The Ethereum Merge Rise Post Chainlink’s Announcement 08/09/2022 10:00:27 AM
XCNNUSD 0.0894 0.0031 3.55% Bullish Expectations From The Ethereum Merge Rise Post Chainlink’s Announcement 08/09/2022 10:00:27 AM
AON 293.6700 3.8400 1.32% Scottie Scheffler Wins the Aon Risk Reward Challenge and $1 Million Prize 08/09/2022 10:00:00 AM
AVAXUSD 27.4300 -0.5200 -1.86% Pinterest for Web3: Project launches curation ecosystem on Avalanche 08/09/2022 10:00:00 AM
AXIS 0.5400 0.0000 0.00% Aisle 24 Adopts State-of-the-Art Security Solution to Accelerate Cashierless Convenience Grocery Retail Concept 08/09/2022 10:00:00 AM
AXIS 0.5400 0.0000 0.00% L’Allée 24 adopte une solution de sécurité de pointe pour accélérer le concept de la vente au détail de produits d’épicerie sans caissier 08/09/2022 10:00:00 AM
BL 64.2400 -2.2600 -3.40% BlackLine CEO Marc Huffman Named a Judge for 2022 Forbes Cloud 100 08/09/2022 10:00:00 AM
BL 64.2400 -2.2600 -3.40% BlackLine CEO Marc Huffman Named a Judge for 2022 Forbes Cloud 100 08/09/2022 10:00:00 AM
BNS 60.6059 -0.2941 -0.48% Scotiabank and BNP Paribas launch structured products on MSCI Food Revolution and Ageing Society Indexes 08/09/2022 10:00:00 AM
FRG 31.5500 -0.9800 -3.01% TRC Healthcare and The Vitamin Shoppe® Partner to Help Consumers Choose Dietary Supplements Based on Scientific Evidence 08/09/2022 10:00:00 AM
GE 75.8100 0.6300 0.84% Ignitis Gamyba Chooses GE Digital’s OPM Production Planning Software to Accurately Forecast Day-Ahead Electricity Trading 08/09/2022 10:00:00 AM
GILD 61.5650 -0.0350 -0.06% Gilead Sciences and a Coalition of LGBTQ+ and Human Rights-Focused Organizations Mobilize to Address Monkeypox Public Health Emergency 08/09/2022 10:00:00 AM
IBKR 60.5800 -0.6500 -1.06% Interactive Brokers Expands Cryptocurrency Trading 08/09/2022 10:00:00 AM
ZEV 3.9800 -0.2600 -6.13% Lightning eMotors Announces Launch of Lightning Insights Real-Time EV Telematics and Charger Management Software 08/09/2022 10:00:00 AM
ICCH 16.8000 0.0000 0.00% ICC Holdings, Inc. Reports 2022 Second Quarter and Six Months Results 08/09/2022 09:59:00 AM